sensor_id;sensor_type;location;lat;lon;timestamp;temperature;humidity
15040;DHT22;7617;47.366;8.558;2024-03-07T00:00:25;7.10;99.90
15040;DHT22;7617;47.366;8.558;2024-03-07T00:02:54;7.20;99.90
15040;DHT22;7617;47.366;8.558;2024-03-07T00:05:23;7.20;99.90
15040;DHT22;7617;47.366;8.558;2024-03-07T00:07:53;7.10;99.90
15040;DHT22;7617;47.366;8.558;2024-03-07T00:10:21;7.10;99.90
15040;DHT22;7617;47.366;8.558;2024-03-07T00:12:50;7.10;99.90
15040;DHT22;7617;47.366;8.558;2024-03-07T00:15:20;7.10;99.90
15040;DHT22;7617;47.366;8.558;2024-03-07T00:17:48;7.10;99.90
15040;DHT22;7617;47.366;8.558;2024-03-07T00:20:18;7.10;99.90
15040;DHT22;7617;47.366;8.558;2024-03-07T00:22:48;7.10;99.90
15040;DHT22;7617;47.366;8.558;2024-03-07T00:25:16;7.10;99.90
15040;DHT22;7617;47.366;8.558;2024-03-07T00:27:47;7.10;99.90
15040;DHT22;7617;47.366;8.558;2024-03-07T00:30:16;7.10;99.90
15040;DHT22;7617;47.366;8.558;2024-03-07T00:32:49;7.10;99.90
15040;DHT22;7617;47.366;8.558;2024-03-07T00:35:18;7.20;99.90
15040;DHT22;7617;47.366;8.558;2024-03-07T00:37:47;7.20;99.90
15040;DHT22;7617;47.366;8.558;2024-03-07T00:40:16;7.20;99.90
15040;DHT22;7617;47.366;8.558;2024-03-07T00:42:44;7.20;99.90
15040;DHT22;7617;47.366;8.558;2024-03-07T00:45:13;7.20;99.90
15040;DHT22;7617;47.366;8.558;2024-03-07T00:47:41;7.20;99.90
15040;DHT22;7617;47.366;8.558;2024-03-07T00:50:11;7.20;99.90
15040;DHT22;7617;47.366;8.558;2024-03-07T00:52:40;7.20;99.90
15040;DHT22;7617;47.366;8.558;2024-03-07T00:55:08;7.20;99.90
15040;DHT22;7617;47.366;8.558;2024-03-07T00:57:37;7.10;99.90
15040;DHT22;7617;47.366;8.558;2024-03-07T01:00:06;7.10;99.90
15040;DHT22;7617;47.366;8.558;2024-03-07T01:02:40;7.10;99.90
15040;DHT22;7617;47.366;8.558;2024-03-07T01:05:12;7.10;99.90
15040;DHT22;7617;47.366;8.558;2024-03-07T01:07:41;7.10;99.90
15040;DHT22;7617;47.366;8.558;2024-03-07T01:10:12;7.10;99.90
15040;DHT22;7617;47.366;8.558;2024-03-07T01:12:41;7.10;99.90
15040;DHT22;7617;47.366;8.558;2024-03-07T01:15:11;7.10;99.90
15040;DHT22;7617;47.366;8.558;2024-03-07T01:17:40;7.10;99.90
15040;DHT22;7617;47.366;8.558;2024-03-07T01:20:09;7.20;99.90
15040;DHT22;7617;47.366;8.558;2024-03-07T01:22:40;7.20;99.90
15040;DHT22;7617;47.366;8.558;2024-03-07T01:25:08;7.20;99.90
15040;DHT22;7617;47.366;8.558;2024-03-07T01:27:36;7.30;99.90
15040;DHT22;7617;47.366;8.558;2024-03-07T01:30:06;7.20;99.90
15040;DHT22;7617;47.366;8.558;2024-03-07T01:32:35;7.20;99.90
15040;DHT22;7617;47.366;8.558;2024-03-07T01:35:04;7.20;99.90
15040;DHT22;7617;47.366;8.558;2024-03-07T01:37:34;7.20;99.90
15040;DHT22;7617;47.366;8.558;2024-03-07T01:40:04;7.20;99.90
15040;DHT22;7617;47.366;8.558;2024-03-07T01:42:33;7.20;99.90
15040;DHT22;7617;47.366;8.558;2024-03-07T01:45:03;7.20;99.90
15040;DHT22;7617;47.366;8.558;2024-03-07T01:47:31;7.20;99.90
15040;DHT22;7617;47.366;8.558;2024-03-07T01:50:00;7.20;99.90
15040;DHT22;7617;47.366;8.558;2024-03-07T01:52:29;7.20;99.90
15040;DHT22;7617;47.366;8.558;2024-03-07T01:54:58;7.30;99.90
15040;DHT22;7617;47.366;8.558;2024-03-07T01:57:27;7.20;99.90
15040;DHT22;7617;47.366;8.558;2024-03-07T01:59:56;7.20;99.90
15040;DHT22;7617;47.366;8.558;2024-03-07T02:02:24;7.20;99.90
15040;DHT22;7617;47.366;8.558;2024-03-07T02:04:53;7.20;99.90
15040;DHT22;7617;47.366;8.558;2024-03-07T02:07:22;7.30;99.90
15040;DHT22;7617;47.366;8.558;2024-03-07T02:09:59;7.30;99.90
15040;DHT22;7617;47.366;8.558;2024-03-07T02:12:29;7.30;99.90
15040;DHT22;7617;47.366;8.558;2024-03-07T02:14:58;7.40;99.90
15040;DHT22;7617;47.366;8.558;2024-03-07T02:17:26;7.40;99.90
15040;DHT22;7617;47.366;8.558;2024-03-07T02:19:55;7.40;99.90
15040;DHT22;7617;47.366;8.558;2024-03-07T02:22:25;7.40;99.90
15040;DHT22;7617;47.366;8.558;2024-03-07T02:24:54;7.30;99.90
15040;DHT22;7617;47.366;8.558;2024-03-07T02:27:23;7.30;99.90
15040;DHT22;7617;47.366;8.558;2024-03-07T02:29:51;7.40;99.90
15040;DHT22;7617;47.366;8.558;2024-03-07T02:32:19;7.40;99.90
15040;DHT22;7617;47.366;8.558;2024-03-07T02:34:48;7.40;99.90
15040;DHT22;7617;47.366;8.558;2024-03-07T02:37:16;7.50;99.90
15040;DHT22;7617;47.366;8.558;2024-03-07T02:39:46;7.40;99.90
15040;DHT22;7617;47.366;8.558;2024-03-07T02:42:14;7.50;99.90
15040;DHT22;7617;47.366;8.558;2024-03-07T02:44:42;7.40;99.90
15040;DHT22;7617;47.366;8.558;2024-03-07T02:47:12;7.30;99.90
15040;DHT22;7617;47.366;8.558;2024-03-07T02:49:40;7.30;99.90
15040;DHT22;7617;47.366;8.558;2024-03-07T02:52:08;7.40;99.90
15040;DHT22;7617;47.366;8.558;2024-03-07T02:54:36;7.40;99.90
15040;DHT22;7617;47.366;8.558;2024-03-07T02:57:06;7.40;99.90
15040;DHT22;7617;47.366;8.558;2024-03-07T02:59:34;7.40;99.90
15040;DHT22;7617;47.366;8.558;2024-03-07T03:02:04;7.40;99.90
15040;DHT22;7617;47.366;8.558;2024-03-07T03:04:33;7.50;99.90
15040;DHT22;7617;47.366;8.558;2024-03-07T03:07:01;7.50;99.90
15040;DHT22;7617;47.366;8.558;2024-03-07T03:09:29;7.40;99.90
15040;DHT22;7617;47.366;8.558;2024-03-07T03:12:01;7.40;99.90
15040;DHT22;7617;47.366;8.558;2024-03-07T03:14:30;7.40;99.90
15040;DHT22;7617;47.366;8.558;2024-03-07T03:16:58;7.40;99.90
15040;DHT22;7617;47.366;8.558;2024-03-07T03:19:27;7.40;99.90
15040;DHT22;7617;47.366;8.558;2024-03-07T03:21:56;7.40;99.90
15040;DHT22;7617;47.366;8.558;2024-03-07T03:24:24;7.40;99.90
15040;DHT22;7617;47.366;8.558;2024-03-07T03:26:54;7.30;99.90
15040;DHT22;7617;47.366;8.558;2024-03-07T03:29:22;7.30;99.90
15040;DHT22;7617;47.366;8.558;2024-03-07T03:31:52;7.20;99.90
15040;DHT22;7617;47.366;8.558;2024-03-07T03:34:20;7.10;99.90
15040;DHT22;7617;47.366;8.558;2024-03-07T03:36:48;7.20;99.90
15040;DHT22;7617;47.366;8.558;2024-03-07T03:39:17;7.30;99.90
15040;DHT22;7617;47.366;8.558;2024-03-07T03:41:48;7.30;99.90
15040;DHT22;7617;47.366;8.558;2024-03-07T03:44:16;7.40;99.90
15040;DHT22;7617;47.366;8.558;2024-03-07T03:46:45;7.30;99.90
15040;DHT22;7617;47.366;8.558;2024-03-07T03:49:15;7.20;99.90
15040;DHT22;7617;47.366;8.558;2024-03-07T03:51:43;7.20;99.90
15040;DHT22;7617;47.366;8.558;2024-03-07T03:54:15;7.20;99.90
15040;DHT22;7617;47.366;8.558;2024-03-07T03:56:43;7.20;99.90
15040;DHT22;7617;47.366;8.558;2024-03-07T03:59:12;7.20;99.90
15040;DHT22;7617;47.366;8.558;2024-03-07T04:01:40;7.10;99.90
15040;DHT22;7617;47.366;8.558;2024-03-07T04:04:09;7.10;99.90
15040;DHT22;7617;47.366;8.558;2024-03-07T04:06:38;7.10;99.90
15040;DHT22;7617;47.366;8.558;2024-03-07T04:09:07;7.20;99.90
15040;DHT22;7617;47.366;8.558;2024-03-07T04:11:35;7.20;99.90
15040;DHT22;7617;47.366;8.558;2024-03-07T04:14:05;7.20;99.90
15040;DHT22;7617;47.366;8.558;2024-03-07T04:16:33;7.20;99.90
15040;DHT22;7617;47.366;8.558;2024-03-07T04:19:01;7.20;99.90
15040;DHT22;7617;47.366;8.558;2024-03-07T04:21:30;7.30;99.90
15040;DHT22;7617;47.366;8.558;2024-03-07T04:24:00;7.30;99.90
15040;DHT22;7617;47.366;8.558;2024-03-07T04:26:30;7.30;99.90
15040;DHT22;7617;47.366;8.558;2024-03-07T04:28:58;7.30;99.90
15040;DHT22;7617;47.366;8.558;2024-03-07T04:31:26;7.30;99.90
15040;DHT22;7617;47.366;8.558;2024-03-07T04:33:55;7.30;99.90
15040;DHT22;7617;47.366;8.558;2024-03-07T04:36:23;7.30;99.90
15040;DHT22;7617;47.366;8.558;2024-03-07T04:38:51;7.30;99.90
15040;DHT22;7617;47.366;8.558;2024-03-07T04:41:21;7.30;99.90
15040;DHT22;7617;47.366;8.558;2024-03-07T04:43:50;7.30;99.90
15040;DHT22;7617;47.366;8.558;2024-03-07T04:46:18;7.30;99.90
15040;DHT22;7617;47.366;8.558;2024-03-07T04:48:47;7.30;99.90
15040;DHT22;7617;47.366;8.558;2024-03-07T04:51:15;7.40;99.90
15040;DHT22;7617;47.366;8.558;2024-03-07T04:53:44;7.40;99.90
15040;DHT22;7617;47.366;8.558;2024-03-07T04:56:12;7.40;99.90
15040;DHT22;7617;47.366;8.558;2024-03-07T04:58:43;7.40;99.90
15040;DHT22;7617;47.366;8.558;2024-03-07T05:01:11;7.40;99.90
15040;DHT22;7617;47.366;8.558;2024-03-07T05:03:40;7.40;99.90
15040;DHT22;7617;47.366;8.558;2024-03-07T05:06:09;7.30;99.90
15040;DHT22;7617;47.366;8.558;2024-03-07T05:08:37;7.30;99.90
15040;DHT22;7617;47.366;8.558;2024-03-07T05:11:06;7.40;99.90
15040;DHT22;7617;47.366;8.558;2024-03-07T05:13:34;7.40;99.90
15040;DHT22;7617;47.366;8.558;2024-03-07T05:16:05;7.40;99.90
15040;DHT22;7617;47.366;8.558;2024-03-07T05:18:35;7.40;99.90
15040;DHT22;7617;47.366;8.558;2024-03-07T05:21:04;7.50;99.90
15040;DHT22;7617;47.366;8.558;2024-03-07T05:23:58;7.50;99.90
15040;DHT22;7617;47.366;8.558;2024-03-07T05:26:26;7.50;99.90
15040;DHT22;7617;47.366;8.558;2024-03-07T05:28:55;7.40;99.90
15040;DHT22;7617;47.366;8.558;2024-03-07T05:31:24;7.40;99.90
15040;DHT22;7617;47.366;8.558;2024-03-07T05:33:53;7.40;99.90
15040;DHT22;7617;47.366;8.558;2024-03-07T05:36:21;7.40;99.90
15040;DHT22;7617;47.366;8.558;2024-03-07T05:38:50;7.30;99.90
15040;DHT22;7617;47.366;8.558;2024-03-07T05:41:19;7.30;99.90
15040;DHT22;7617;47.366;8.558;2024-03-07T05:43:48;7.30;99.90
15040;DHT22;7617;47.366;8.558;2024-03-07T05:46:18;7.20;99.90
15040;DHT22;7617;47.366;8.558;2024-03-07T05:48:48;7.20;99.90
15040;DHT22;7617;47.366;8.558;2024-03-07T05:51:19;7.10;99.90
15040;DHT22;7617;47.366;8.558;2024-03-07T05:53:47;7.10;99.90
15040;DHT22;7617;47.366;8.558;2024-03-07T05:56:15;7.10;99.90
15040;DHT22;7617;47.366;8.558;2024-03-07T05:58:44;7.10;99.90
15040;DHT22;7617;47.366;8.558;2024-03-07T06:01:12;7.10;99.90
15040;DHT22;7617;47.366;8.558;2024-03-07T06:03:40;7.20;99.90
15040;DHT22;7617;47.366;8.558;2024-03-07T06:06:10;7.20;99.90
15040;DHT22;7617;47.366;8.558;2024-03-07T06:08:41;7.20;99.90
15040;DHT22;7617;47.366;8.558;2024-03-07T06:11:10;7.20;99.90
15040;DHT22;7617;47.366;8.558;2024-03-07T06:13:40;7.20;99.90
15040;DHT22;7617;47.366;8.558;2024-03-07T06:16:08;7.20;99.90
15040;DHT22;7617;47.366;8.558;2024-03-07T06:18:37;7.20;99.90
15040;DHT22;7617;47.366;8.558;2024-03-07T06:21:05;7.10;99.90
15040;DHT22;7617;47.366;8.558;2024-03-07T06:23:35;7.00;99.90
15040;DHT22;7617;47.366;8.558;2024-03-07T06:26:03;7.00;99.90
15040;DHT22;7617;47.366;8.558;2024-03-07T06:28:40;6.90;99.90
15040;DHT22;7617;47.366;8.558;2024-03-07T06:31:08;6.90;99.90
15040;DHT22;7617;47.366;8.558;2024-03-07T06:33:36;7.00;99.90
15040;DHT22;7617;47.366;8.558;2024-03-07T06:36:05;7.00;99.90
15040;DHT22;7617;47.366;8.558;2024-03-07T06:38:35;7.10;99.90
15040;DHT22;7617;47.366;8.558;2024-03-07T06:41:03;7.20;99.90
15040;DHT22;7617;47.366;8.558;2024-03-07T06:43:31;7.30;99.90
15040;DHT22;7617;47.366;8.558;2024-03-07T06:45:59;7.30;99.90
15040;DHT22;7617;47.366;8.558;2024-03-07T06:48:28;7.40;99.90
15040;DHT22;7617;47.366;8.558;2024-03-07T06:50:56;7.40;99.90
15040;DHT22;7617;47.366;8.558;2024-03-07T06:53:25;7.50;99.90
15040;DHT22;7617;47.366;8.558;2024-03-07T06:55:54;7.50;99.90
15040;DHT22;7617;47.366;8.558;2024-03-07T06:58:22;7.50;99.90
15040;DHT22;7617;47.366;8.558;2024-03-07T07:00:50;7.70;99.90
15040;DHT22;7617;47.366;8.558;2024-03-07T07:03:21;7.70;99.90
15040;DHT22;7617;47.366;8.558;2024-03-07T07:05:50;7.70;99.90
15040;DHT22;7617;47.366;8.558;2024-03-07T07:08:19;7.70;99.90
15040;DHT22;7617;47.366;8.558;2024-03-07T07:10:49;7.80;99.90
15040;DHT22;7617;47.366;8.558;2024-03-07T07:13:18;7.80;99.90
15040;DHT22;7617;47.366;8.558;2024-03-07T07:15:47;7.90;99.90
15040;DHT22;7617;47.366;8.558;2024-03-07T07:18:16;7.90;99.90
15040;DHT22;7617;47.366;8.558;2024-03-07T07:20:44;7.90;99.90
15040;DHT22;7617;47.366;8.558;2024-03-07T07:23:15;8.00;99.90
15040;DHT22;7617;47.366;8.558;2024-03-07T07:25:43;8.00;99.90
15040;DHT22;7617;47.366;8.558;2024-03-07T07:28:11;8.00;99.90
15040;DHT22;7617;47.366;8.558;2024-03-07T07:30:41;8.10;99.90
15040;DHT22;7617;47.366;8.558;2024-03-07T07:33:12;8.10;99.90
15040;DHT22;7617;47.366;8.558;2024-03-07T07:35:41;8.10;99.90
15040;DHT22;7617;47.366;8.558;2024-03-07T07:38:10;8.10;99.90
15040;DHT22;7617;47.366;8.558;2024-03-07T07:40:39;8.10;99.90
15040;DHT22;7617;47.366;8.558;2024-03-07T07:43:09;8.10;99.90
15040;DHT22;7617;47.366;8.558;2024-03-07T07:45:53;7.80;99.90
15040;DHT22;7617;47.366;8.558;2024-03-07T07:48:21;7.80;99.90
15040;DHT22;7617;47.366;8.558;2024-03-07T07:50:50;7.80;99.90
15040;DHT22;7617;47.366;8.558;2024-03-07T07:53:19;7.80;99.90
15040;DHT22;7617;47.366;8.558;2024-03-07T07:55:47;7.90;99.90
15040;DHT22;7617;47.366;8.558;2024-03-07T07:58:15;7.90;99.90
15040;DHT22;7617;47.366;8.558;2024-03-07T08:00:44;7.90;99.90
15040;DHT22;7617;47.366;8.558;2024-03-07T08:03:13;8.00;99.90
15040;DHT22;7617;47.366;8.558;2024-03-07T08:05:44;8.10;99.90
15040;DHT22;7617;47.366;8.558;2024-03-07T08:08:12;8.00;99.90
15040;DHT22;7617;47.366;8.558;2024-03-07T08:10:43;7.90;99.90
15040;DHT22;7617;47.366;8.558;2024-03-07T08:13:12;8.00;99.90
15040;DHT22;7617;47.366;8.558;2024-03-07T08:15:41;7.90;99.90
15040;DHT22;7617;47.366;8.558;2024-03-07T08:18:10;7.60;99.90
15040;DHT22;7617;47.366;8.558;2024-03-07T08:20:41;7.60;99.90
15040;DHT22;7617;47.366;8.558;2024-03-07T08:23:09;7.70;99.90
15040;DHT22;7617;47.366;8.558;2024-03-07T08:25:40;7.80;99.90
15040;DHT22;7617;47.366;8.558;2024-03-07T08:28:08;7.80;99.90
15040;DHT22;7617;47.366;8.558;2024-03-07T08:30:37;8.00;99.90
15040;DHT22;7617;47.366;8.558;2024-03-07T08:33:05;8.00;99.90
15040;DHT22;7617;47.366;8.558;2024-03-07T08:35:34;8.10;99.90
15040;DHT22;7617;47.366;8.558;2024-03-07T08:38:04;8.00;99.90
15040;DHT22;7617;47.366;8.558;2024-03-07T08:40:32;8.00;99.90
15040;DHT22;7617;47.366;8.558;2024-03-07T08:43:01;8.00;99.90
15040;DHT22;7617;47.366;8.558;2024-03-07T08:45:30;8.10;99.90
15040;DHT22;7617;47.366;8.558;2024-03-07T08:48:01;8.00;99.90
15040;DHT22;7617;47.366;8.558;2024-03-07T08:50:32;8.00;99.90
15040;DHT22;7617;47.366;8.558;2024-03-07T08:53:01;8.10;99.90
15040;DHT22;7617;47.366;8.558;2024-03-07T08:55:32;8.10;99.90
15040;DHT22;7617;47.366;8.558;2024-03-07T08:58:04;8.10;99.90
15040;DHT22;7617;47.366;8.558;2024-03-07T09:00:35;8.20;99.90
15040;DHT22;7617;47.366;8.558;2024-03-07T09:03:06;8.20;99.90
15040;DHT22;7617;47.366;8.558;2024-03-07T09:05:37;8.20;99.90
15040;DHT22;7617;47.366;8.558;2024-03-07T09:08:10;8.20;99.90
15040;DHT22;7617;47.366;8.558;2024-03-07T09:10:40;8.30;99.90
15040;DHT22;7617;47.366;8.558;2024-03-07T09:13:09;8.20;99.90
15040;DHT22;7617;47.366;8.558;2024-03-07T09:15:37;8.20;99.90
15040;DHT22;7617;47.366;8.558;2024-03-07T09:18:06;8.20;99.90
15040;DHT22;7617;47.366;8.558;2024-03-07T09:20:35;8.10;99.90
15040;DHT22;7617;47.366;8.558;2024-03-07T09:23:03;8.00;99.90
15040;DHT22;7617;47.366;8.558;2024-03-07T09:25:33;8.00;99.90
15040;DHT22;7617;47.366;8.558;2024-03-07T09:28:03;8.00;99.90
15040;DHT22;7617;47.366;8.558;2024-03-07T09:30:31;8.00;99.90
15040;DHT22;7617;47.366;8.558;2024-03-07T09:32:59;8.00;99.90
15040;DHT22;7617;47.366;8.558;2024-03-07T09:35:28;8.00;99.90
15040;DHT22;7617;47.366;8.558;2024-03-07T09:37:57;8.10;99.90
15040;DHT22;7617;47.366;8.558;2024-03-07T09:40:26;8.10;99.90
15040;DHT22;7617;47.366;8.558;2024-03-07T09:42:56;8.20;99.90
15040;DHT22;7617;47.366;8.558;2024-03-07T09:45:30;8.30;99.90
15040;DHT22;7617;47.366;8.558;2024-03-07T09:47:59;8.50;99.90
15040;DHT22;7617;47.366;8.558;2024-03-07T09:50:29;8.50;99.90
15040;DHT22;7617;47.366;8.558;2024-03-07T09:52:58;8.50;99.90
15040;DHT22;7617;47.366;8.558;2024-03-07T09:55:27;8.30;99.90
15040;DHT22;7617;47.366;8.558;2024-03-07T09:57:58;8.10;99.90
15040;DHT22;7617;47.366;8.558;2024-03-07T10:00:29;8.00;99.90
15040;DHT22;7617;47.366;8.558;2024-03-07T10:03:01;8.00;99.90
15040;DHT22;7617;47.366;8.558;2024-03-07T10:05:30;8.10;99.90
15040;DHT22;7617;47.366;8.558;2024-03-07T10:07:59;8.10;99.90
15040;DHT22;7617;47.366;8.558;2024-03-07T10:10:28;8.20;99.90
15040;DHT22;7617;47.366;8.558;2024-03-07T10:12:57;8.50;99.90
15040;DHT22;7617;47.366;8.558;2024-03-07T10:15:29;8.50;99.90
15040;DHT22;7617;47.366;8.558;2024-03-07T10:17:57;8.70;99.90
15040;DHT22;7617;47.366;8.558;2024-03-07T10:20:28;8.90;99.90
15040;DHT22;7617;47.366;8.558;2024-03-07T10:22:56;9.00;99.90
15040;DHT22;7617;47.366;8.558;2024-03-07T10:25:24;9.10;99.90
15040;DHT22;7617;47.366;8.558;2024-03-07T10:27:56;9.20;99.90
15040;DHT22;7617;47.366;8.558;2024-03-07T10:30:26;9.30;99.90
15040;DHT22;7617;47.366;8.558;2024-03-07T10:32:57;9.30;99.90
15040;DHT22;7617;47.366;8.558;2024-03-07T10:35:28;9.30;99.90
15040;DHT22;7617;47.366;8.558;2024-03-07T10:37:59;9.20;99.90
15040;DHT22;7617;47.366;8.558;2024-03-07T10:42:58;9.30;99.90
15040;DHT22;7617;47.366;8.558;2024-03-07T10:45:30;9.30;99.90
15040;DHT22;7617;47.366;8.558;2024-03-07T10:48:06;9.20;99.90
15040;DHT22;7617;47.366;8.558;2024-03-07T10:50:43;9.30;99.90
15040;DHT22;7617;47.366;8.558;2024-03-07T10:53:21;9.30;99.90
15040;DHT22;7617;47.366;8.558;2024-03-07T10:56:01;9.30;99.90
15040;DHT22;7617;47.366;8.558;2024-03-07T10:58:38;9.10;99.90
15040;DHT22;7617;47.366;8.558;2024-03-07T11:01:10;9.00;99.90
15040;DHT22;7617;47.366;8.558;2024-03-07T11:03:41;9.00;99.90
15040;DHT22;7617;47.366;8.558;2024-03-07T11:06:10;9.00;99.90
15040;DHT22;7617;47.366;8.558;2024-03-07T11:08:39;9.10;99.90
15040;DHT22;7617;47.366;8.558;2024-03-07T11:11:08;9.20;99.90
15040;DHT22;7617;47.366;8.558;2024-03-07T11:13:39;9.20;99.90
15040;DHT22;7617;47.366;8.558;2024-03-07T11:16:08;9.30;99.90
15040;DHT22;7617;47.366;8.558;2024-03-07T11:18:37;9.20;99.90
15040;DHT22;7617;47.366;8.558;2024-03-07T11:21:06;9.20;99.90
15040;DHT22;7617;47.366;8.558;2024-03-07T11:23:35;9.30;99.90
15040;DHT22;7617;47.366;8.558;2024-03-07T11:26:08;9.40;99.90
15040;DHT22;7617;47.366;8.558;2024-03-07T11:28:39;9.50;99.90
15040;DHT22;7617;47.366;8.558;2024-03-07T11:31:08;9.60;99.50
15040;DHT22;7617;47.366;8.558;2024-03-07T11:33:37;9.50;99.10
15040;DHT22;7617;47.366;8.558;2024-03-07T11:36:10;9.00;99.40
15040;DHT22;7617;47.366;8.558;2024-03-07T11:38:44;9.00;99.60
15040;DHT22;7617;47.366;8.558;2024-03-07T11:41:13;9.00;99.90
15040;DHT22;7617;47.366;8.558;2024-03-07T11:43:42;9.00;99.90
15040;DHT22;7617;47.366;8.558;2024-03-07T11:46:10;9.00;99.90
15040;DHT22;7617;47.366;8.558;2024-03-07T11:48:43;9.00;99.90
15040;DHT22;7617;47.366;8.558;2024-03-07T11:51:17;9.20;99.90
15040;DHT22;7617;47.366;8.558;2024-03-07T11:53:54;9.30;99.90
15040;DHT22;7617;47.366;8.558;2024-03-07T11:56:23;9.40;99.90
15040;DHT22;7617;47.366;8.558;2024-03-07T11:58:51;9.40;99.60
15040;DHT22;7617;47.366;8.558;2024-03-07T12:01:48;9.40;99.20
15040;DHT22;7617;47.366;8.558;2024-03-07T12:04:17;9.30;99.30
15040;DHT22;7617;47.366;8.558;2024-03-07T12:06:51;9.10;99.40
15040;DHT22;7617;47.366;8.558;2024-03-07T12:09:19;9.10;99.90
15040;DHT22;7617;47.366;8.558;2024-03-07T12:11:50;9.20;99.90
15040;DHT22;7617;47.366;8.558;2024-03-07T12:14:20;9.20;99.90
15040;DHT22;7617;47.366;8.558;2024-03-07T12:16:48;9.40;99.90
15040;DHT22;7617;47.366;8.558;2024-03-07T12:19:16;9.50;99.90
15040;DHT22;7617;47.366;8.558;2024-03-07T12:21:46;9.60;99.80
15040;DHT22;7617;47.366;8.558;2024-03-07T12:24:16;9.60;99.80
15040;DHT22;7617;47.366;8.558;2024-03-07T12:26:44;9.60;99.30
15040;DHT22;7617;47.366;8.558;2024-03-07T12:29:13;9.70;99.60
15040;DHT22;7617;47.366;8.558;2024-03-07T12:31:42;9.60;99.10
15040;DHT22;7617;47.366;8.558;2024-03-07T12:34:10;9.60;99.60
15040;DHT22;7617;47.366;8.558;2024-03-07T12:36:38;9.70;99.80
15040;DHT22;7617;47.366;8.558;2024-03-07T12:39:23;9.70;99.70
15040;DHT22;7617;47.366;8.558;2024-03-07T12:41:59;9.80;99.40
15040;DHT22;7617;47.366;8.558;2024-03-07T12:44:28;9.80;99.50
15040;DHT22;7617;47.366;8.558;2024-03-07T12:47:10;9.80;99.30
15040;DHT22;7617;47.366;8.558;2024-03-07T12:49:38;9.60;98.80
15040;DHT22;7617;47.366;8.558;2024-03-07T12:52:06;9.50;99.50
15040;DHT22;7617;47.366;8.558;2024-03-07T12:54:38;9.40;99.40
15040;DHT22;7617;47.366;8.558;2024-03-07T12:57:08;9.30;99.30
15040;DHT22;7617;47.366;8.558;2024-03-07T12:59:38;9.20;99.50
15040;DHT22;7617;47.366;8.558;2024-03-07T13:02:07;9.30;99.70
15040;DHT22;7617;47.366;8.558;2024-03-07T13:04:35;9.40;99.90
15040;DHT22;7617;47.366;8.558;2024-03-07T13:07:06;9.50;99.40
15040;DHT22;7617;47.366;8.558;2024-03-07T13:09:34;9.50;99.00
15040;DHT22;7617;47.366;8.558;2024-03-07T13:12:04;9.40;98.90
15040;DHT22;7617;47.366;8.558;2024-03-07T13:14:37;9.50;99.30
15040;DHT22;7617;47.366;8.558;2024-03-07T13:17:05;9.50;99.30
15040;DHT22;7617;47.366;8.558;2024-03-07T13:19:33;9.60;99.30
15040;DHT22;7617;47.366;8.558;2024-03-07T13:22:06;9.60;99.20
15040;DHT22;7617;47.366;8.558;2024-03-07T13:24:35;9.50;98.60
15040;DHT22;7617;47.366;8.558;2024-03-07T13:27:04;9.50;98.70
15040;DHT22;7617;47.366;8.558;2024-03-07T13:29:38;9.40;98.90
15040;DHT22;7617;47.366;8.558;2024-03-07T13:32:07;9.50;99.20
15040;DHT22;7617;47.366;8.558;2024-03-07T13:34:37;9.60;99.10
15040;DHT22;7617;47.366;8.558;2024-03-07T13:37:05;9.70;99.10
15040;DHT22;7617;47.366;8.558;2024-03-07T13:39:33;9.80;98.90
15040;DHT22;7617;47.366;8.558;2024-03-07T13:42:01;9.80;98.80
15040;DHT22;7617;47.366;8.558;2024-03-07T13:44:33;9.90;98.80
15040;DHT22;7617;47.366;8.558;2024-03-07T13:47:01;9.90;98.50
15040;DHT22;7617;47.366;8.558;2024-03-07T13:49:29;9.80;98.40
15040;DHT22;7617;47.366;8.558;2024-03-07T13:51:57;9.60;97.80
15040;DHT22;7617;47.366;8.558;2024-03-07T13:54:37;12.20;99.10
15040;DHT22;7617;47.366;8.558;2024-03-07T13:57:21;9.50;98.30
15040;DHT22;7617;47.366;8.558;2024-03-07T14:00:16;9.50;98.60
15040;DHT22;7617;47.366;8.558;2024-03-07T14:03:14;9.40;98.40
15040;DHT22;7617;47.366;8.558;2024-03-07T14:05:58;9.40;98.30
15040;DHT22;7617;47.366;8.558;2024-03-07T14:15:00;9.20;98.70
15040;DHT22;7617;47.366;8.558;2024-03-07T14:18:10;9.30;98.80
15040;DHT22;7617;47.366;8.558;2024-03-07T14:21:04;9.50;98.20
15040;DHT22;7617;47.366;8.558;2024-03-07T14:23:45;9.40;98.50
15040;DHT22;7617;47.366;8.558;2024-03-07T14:26:50;9.40;98.60
15040;DHT22;7617;47.366;8.558;2024-03-07T14:29:27;7.80;97.90
15040;DHT22;7617;47.366;8.558;2024-03-07T14:32:00;9.40;98.40
15040;DHT22;7617;47.366;8.558;2024-03-07T14:34:37;9.40;98.00
15040;DHT22;7617;47.366;8.558;2024-03-07T14:37:19;9.30;98.10
15040;DHT22;7617;47.366;8.558;2024-03-07T14:39:52;9.10;97.90
15040;DHT22;7617;47.366;8.558;2024-03-07T14:42:22;9.10;97.90
15040;DHT22;7617;47.366;8.558;2024-03-07T14:44:51;9.00;97.70
15040;DHT22;7617;47.366;8.558;2024-03-07T14:47:20;9.00;98.00
15040;DHT22;7617;47.366;8.558;2024-03-07T14:49:49;8.80;98.10
15040;DHT22;7617;47.366;8.558;2024-03-07T14:52:18;8.80;98.30
15040;DHT22;7617;47.366;8.558;2024-03-07T14:54:48;8.80;98.60
15040;DHT22;7617;47.366;8.558;2024-03-07T14:57:16;8.80;98.40
15040;DHT22;7617;47.366;8.558;2024-03-07T14:59:48;8.80;98.50
15040;DHT22;7617;47.366;8.558;2024-03-07T15:02:18;8.80;98.30
15040;DHT22;7617;47.366;8.558;2024-03-07T15:04:47;8.90;98.60
15040;DHT22;7617;47.366;8.558;2024-03-07T15:07:17;9.00;98.30
15040;DHT22;7617;47.366;8.558;2024-03-07T15:09:50;8.80;97.90
15040;DHT22;7617;47.366;8.558;2024-03-07T15:12:18;8.80;98.10
15040;DHT22;7617;47.366;8.558;2024-03-07T15:14:46;8.80;98.40
15040;DHT22;7617;47.366;8.558;2024-03-07T15:17:21;8.70;98.40
15040;DHT22;7617;47.366;8.558;2024-03-07T15:19:50;8.70;98.80
15040;DHT22;7617;47.366;8.558;2024-03-07T15:22:20;8.70;98.80
15040;DHT22;7617;47.366;8.558;2024-03-07T15:24:48;8.80;98.90
15040;DHT22;7617;47.366;8.558;2024-03-07T15:27:16;8.80;99.10
15040;DHT22;7617;47.366;8.558;2024-03-07T15:29:44;8.90;99.10
15040;DHT22;7617;47.366;8.558;2024-03-07T15:32:12;8.90;98.90
15040;DHT22;7617;47.366;8.558;2024-03-07T15:34:42;8.90;98.70
15040;DHT22;7617;47.366;8.558;2024-03-07T15:37:10;8.90;98.50
15040;DHT22;7617;47.366;8.558;2024-03-07T15:39:42;8.90;98.50
15040;DHT22;7617;47.366;8.558;2024-03-07T15:42:14;8.90;98.50
15040;DHT22;7617;47.366;8.558;2024-03-07T15:44:42;8.90;98.60
15040;DHT22;7617;47.366;8.558;2024-03-07T15:47:12;9.00;98.80
15040;DHT22;7617;47.366;8.558;2024-03-07T15:49:40;9.10;98.70
15040;DHT22;7617;47.366;8.558;2024-03-07T15:52:08;9.20;98.50
15040;DHT22;7617;47.366;8.558;2024-03-07T15:54:39;9.30;98.40
15040;DHT22;7617;47.366;8.558;2024-03-07T15:57:10;9.40;98.20
15040;DHT22;7617;47.366;8.558;2024-03-07T15:59:42;9.50;98.10
15040;DHT22;7617;47.366;8.558;2024-03-07T16:02:11;9.50;97.80
15040;DHT22;7617;47.366;8.558;2024-03-07T16:04:41;9.50;97.70
15040;DHT22;7617;47.366;8.558;2024-03-07T16:07:10;9.40;97.80
15040;DHT22;7617;47.366;8.558;2024-03-07T16:09:38;9.40;98.00
15040;DHT22;7617;47.366;8.558;2024-03-07T16:12:06;9.40;98.00
15040;DHT22;7617;47.366;8.558;2024-03-07T16:14:36;9.50;98.00
15040;DHT22;7617;47.366;8.558;2024-03-07T16:17:04;9.50;98.00
15040;DHT22;7617;47.366;8.558;2024-03-07T16:19:35;9.60;97.80
15040;DHT22;7617;47.366;8.558;2024-03-07T16:22:03;9.50;97.70
15040;DHT22;7617;47.366;8.558;2024-03-07T16:24:32;9.40;97.70
15040;DHT22;7617;47.366;8.558;2024-03-07T16:27:08;7.80;97.40
15040;DHT22;7617;47.366;8.558;2024-03-07T16:29:38;9.30;97.80